sensor_id;sensor_type;location;lat;lon;timestamp;temperature;humidity
8858;DHT22;4465;50.904;4.696;2022-09-09T00:01:33;14.70;99.90
8858;DHT22;4465;50.904;4.696;2022-09-09T00:06:35;14.70;99.90
8858;DHT22;4465;50.904;4.696;2022-09-09T00:09:15;14.70;99.90
8858;DHT22;4465;50.904;4.696;2022-09-09T00:12:01;14.70;99.90
8858;DHT22;4465;50.904;4.696;2022-09-09T00:14:56;14.70;99.90
8858;DHT22;4465;50.904;4.696;2022-09-09T00:20:12;14.70;99.90
8858;DHT22;4465;50.904;4.696;2022-09-09T00:22:49;14.60;99.90
8858;DHT22;4465;50.904;4.696;2022-09-09T00:25:37;14.70;99.90
8858;DHT22;4465;50.904;4.696;2022-09-09T00:28:16;14.70;99.90
8858;DHT22;4465;50.904;4.696;2022-09-09T00:30:44;14.70;99.90
8858;DHT22;4465;50.904;4.696;2022-09-09T00:33:16;14.60;99.90
8858;DHT22;4465;50.904;4.696;2022-09-09T00:35:53;14.60;99.90
8858;DHT22;4465;50.904;4.696;2022-09-09T00:38:33;14.60;99.90
8858;DHT22;4465;50.904;4.696;2022-09-09T00:41:14;14.60;99.90
8858;DHT22;4465;50.904;4.696;2022-09-09T00:52:36;14.70;99.90
8858;DHT22;4465;50.904;4.696;2022-09-09T00:57:58;14.70;99.90
8858;DHT22;4465;50.904;4.696;2022-09-09T01:00:27;14.70;99.90
8858;DHT22;4465;50.904;4.696;2022-09-09T01:08:10;14.70;99.90
8858;DHT22;4465;50.904;4.696;2022-09-09T01:10:50;14.70;99.90
8858;DHT22;4465;50.904;4.696;2022-09-09T01:13:24;14.70;99.90
8858;DHT22;4465;50.904;4.696;2022-09-09T01:15:51;14.70;99.90
8858;DHT22;4465;50.904;4.696;2022-09-09T01:18:22;14.70;99.90
8858;DHT22;4465;50.904;4.696;2022-09-09T01:28:29;14.80;99.90
8858;DHT22;4465;50.904;4.696;2022-09-09T01:31:04;14.80;99.90
8858;DHT22;4465;50.904;4.696;2022-09-09T01:33:32;14.80;99.90
8858;DHT22;4465;50.904;4.696;2022-09-09T01:36:09;14.80;99.90
8858;DHT22;4465;50.904;4.696;2022-09-09T01:38:36;14.80;99.90
8858;DHT22;4465;50.904;4.696;2022-09-09T01:41:04;14.80;99.90
8858;DHT22;4465;50.904;4.696;2022-09-09T01:43:32;14.80;99.90
8858;DHT22;4465;50.904;4.696;2022-09-09T01:46:00;14.80;99.90
8858;DHT22;4465;50.904;4.696;2022-09-09T01:48:27;14.80;99.90
8858;DHT22;4465;50.904;4.696;2022-09-09T01:50:54;14.80;99.90
8858;DHT22;4465;50.904;4.696;2022-09-09T01:53:21;14.80;99.90
8858;DHT22;4465;50.904;4.696;2022-09-09T01:56:38;14.80;99.90
8858;DHT22;4465;50.904;4.696;2022-09-09T02:04:41;14.80;99.90
8858;DHT22;4465;50.904;4.696;2022-09-09T02:09:52;14.80;99.90
8858;DHT22;4465;50.904;4.696;2022-09-09T02:12:24;14.80;99.90
8858;DHT22;4465;50.904;4.696;2022-09-09T02:14:56;14.80;99.90
8858;DHT22;4465;50.904;4.696;2022-09-09T02:17:28;14.80;99.90
8858;DHT22;4465;50.904;4.696;2022-09-09T02:20:08;14.80;99.90
8858;DHT22;4465;50.904;4.696;2022-09-09T02:22:37;14.80;99.90
8858;DHT22;4465;50.904;4.696;2022-09-09T02:25:07;14.90;99.90
8858;DHT22;4465;50.904;4.696;2022-09-09T02:27:35;14.80;99.90
8858;DHT22;4465;50.904;4.696;2022-09-09T02:30:02;14.80;99.90
8858;DHT22;4465;50.904;4.696;2022-09-09T02:32:31;14.80;99.90
8858;DHT22;4465;50.904;4.696;2022-09-09T02:35:07;14.80;99.90
8858;DHT22;4465;50.904;4.696;2022-09-09T02:37:39;14.90;99.90
8858;DHT22;4465;50.904;4.696;2022-09-09T02:40:08;14.90;99.90
8858;DHT22;4465;50.904;4.696;2022-09-09T02:42:46;14.90;99.90
8858;DHT22;4465;50.904;4.696;2022-09-09T02:45:16;14.90;99.90
8858;DHT22;4465;50.904;4.696;2022-09-09T02:50:35;14.90;99.90
8858;DHT22;4465;50.904;4.696;2022-09-09T02:53:16;14.90;99.90
8858;DHT22;4465;50.904;4.696;2022-09-09T02:55:55;14.90;99.90
8858;DHT22;4465;50.904;4.696;2022-09-09T02:58:23;14.90;99.90
8858;DHT22;4465;50.904;4.696;2022-09-09T03:00:51;14.90;99.90
8858;DHT22;4465;50.904;4.696;2022-09-09T03:03:17;14.90;99.90
8858;DHT22;4465;50.904;4.696;2022-09-09T03:05:44;14.90;99.90
8858;DHT22;4465;50.904;4.696;2022-09-09T03:08:11;14.90;99.90
8858;DHT22;4465;50.904;4.696;2022-09-09T03:10:38;14.90;99.90
8858;DHT22;4465;50.904;4.696;2022-09-09T03:13:05;14.90;99.90
8858;DHT22;4465;50.904;4.696;2022-09-09T03:15:32;14.90;99.90
8858;DHT22;4465;50.904;4.696;2022-09-09T03:18:03;15.00;99.90
8858;DHT22;4465;50.904;4.696;2022-09-09T03:20:29;14.90;99.90
8858;DHT22;4465;50.904;4.696;2022-09-09T03:22:59;14.90;99.90
8858;DHT22;4465;50.904;4.696;2022-09-09T03:25:25;14.90;99.90
8858;DHT22;4465;50.904;4.696;2022-09-09T03:27:54;14.90;99.90
8858;DHT22;4465;50.904;4.696;2022-09-09T03:30:24;14.90;99.90
8858;DHT22;4465;50.904;4.696;2022-09-09T03:32:51;14.90;99.90
8858;DHT22;4465;50.904;4.696;2022-09-09T03:35:18;14.90;99.90
8858;DHT22;4465;50.904;4.696;2022-09-09T03:37:44;14.90;99.90
8858;DHT22;4465;50.904;4.696;2022-09-09T03:40:11;15.00;99.90
8858;DHT22;4465;50.904;4.696;2022-09-09T03:42:38;14.90;99.90
8858;DHT22;4465;50.904;4.696;2022-09-09T03:45:06;14.90;99.90
8858;DHT22;4465;50.904;4.696;2022-09-09T03:47:33;14.90;99.90
8858;DHT22;4465;50.904;4.696;2022-09-09T03:49:59;14.90;99.90
8858;DHT22;4465;50.904;4.696;2022-09-09T03:52:25;15.00;99.90
8858;DHT22;4465;50.904;4.696;2022-09-09T03:54:52;15.00;99.90
8858;DHT22;4465;50.904;4.696;2022-09-09T03:57:21;15.00;99.90
8858;DHT22;4465;50.904;4.696;2022-09-09T03:59:48;15.00;99.90
8858;DHT22;4465;50.904;4.696;2022-09-09T04:02:14;14.90;99.90
8858;DHT22;4465;50.904;4.696;2022-09-09T04:04:41;15.00;99.90
8858;DHT22;4465;50.904;4.696;2022-09-09T04:07:07;15.00;99.90
8858;DHT22;4465;50.904;4.696;2022-09-09T04:09:34;15.00;99.90
8858;DHT22;4465;50.904;4.696;2022-09-09T04:12:00;14.90;99.90
8858;DHT22;4465;50.904;4.696;2022-09-09T04:14:27;14.90;99.90
8858;DHT22;4465;50.904;4.696;2022-09-09T04:16:57;14.90;99.90
8858;DHT22;4465;50.904;4.696;2022-09-09T04:19:25;14.90;99.90
8858;DHT22;4465;50.904;4.696;2022-09-09T04:21:54;14.90;99.90
8858;DHT22;4465;50.904;4.696;2022-09-09T04:24:20;14.90;99.90
8858;DHT22;4465;50.904;4.696;2022-09-09T04:26:47;15.10;99.90
8858;DHT22;4465;50.904;4.696;2022-09-09T04:29:16;14.90;99.90
8858;DHT22;4465;50.904;4.696;2022-09-09T04:31:42;15.00;99.90
8858;DHT22;4465;50.904;4.696;2022-09-09T04:34:11;15.00;99.90
8858;DHT22;4465;50.904;4.696;2022-09-09T04:36:41;15.00;99.90
8858;DHT22;4465;50.904;4.696;2022-09-09T04:39:07;15.00;99.90
8858;DHT22;4465;50.904;4.696;2022-09-09T04:41:36;15.00;99.90
8858;DHT22;4465;50.904;4.696;2022-09-09T04:44:03;15.00;99.90
8858;DHT22;4465;50.904;4.696;2022-09-09T04:46:29;15.00;99.90
8858;DHT22;4465;50.904;4.696;2022-09-09T04:48:55;15.00;99.90
8858;DHT22;4465;50.904;4.696;2022-09-09T04:51:23;15.10;99.90
8858;DHT22;4465;50.904;4.696;2022-09-09T04:53:52;15.00;99.90
8858;DHT22;4465;50.904;4.696;2022-09-09T04:56:19;15.00;99.90
8858;DHT22;4465;50.904;4.696;2022-09-09T04:58:45;15.00;99.90
8858;DHT22;4465;50.904;4.696;2022-09-09T05:01:17;15.00;99.90
8858;DHT22;4465;50.904;4.696;2022-09-09T05:03:46;15.10;99.90
8858;DHT22;4465;50.904;4.696;2022-09-09T05:06:15;15.00;99.90
8858;DHT22;4465;50.904;4.696;2022-09-09T05:08:42;15.00;99.90
8858;DHT22;4465;50.904;4.696;2022-09-09T05:11:25;15.00;99.90
8858;DHT22;4465;50.904;4.696;2022-09-09T05:13:55;15.00;99.90
8858;DHT22;4465;50.904;4.696;2022-09-09T05:16:24;15.00;99.90
8858;DHT22;4465;50.904;4.696;2022-09-09T05:18:58;14.90;99.90
8858;DHT22;4465;50.904;4.696;2022-09-09T05:21:27;15.00;99.90
8858;DHT22;4465;50.904;4.696;2022-09-09T05:23:54;15.00;99.90
8858;DHT22;4465;50.904;4.696;2022-09-09T05:26:23;15.00;99.90
8858;DHT22;4465;50.904;4.696;2022-09-09T05:28:49;15.00;99.90
8858;DHT22;4465;50.904;4.696;2022-09-09T05:31:17;15.00;99.90
8858;DHT22;4465;50.904;4.696;2022-09-09T05:33:46;15.00;99.90
8858;DHT22;4465;50.904;4.696;2022-09-09T05:36:18;15.00;99.90
8858;DHT22;4465;50.904;4.696;2022-09-09T05:38:44;15.00;99.90
8858;DHT22;4465;50.904;4.696;2022-09-09T05:41:11;15.00;99.90
8858;DHT22;4465;50.904;4.696;2022-09-09T05:43:38;15.00;99.90
8858;DHT22;4465;50.904;4.696;2022-09-09T05:46:12;15.00;99.90
8858;DHT22;4465;50.904;4.696;2022-09-09T05:48:40;15.00;99.90
8858;DHT22;4465;50.904;4.696;2022-09-09T05:51:09;15.10;99.90
8858;DHT22;4465;50.904;4.696;2022-09-09T05:53:41;15.10;99.90
8858;DHT22;4465;50.904;4.696;2022-09-09T05:56:18;15.10;99.90
8858;DHT22;4465;50.904;4.696;2022-09-09T05:58:47;15.10;99.90
8858;DHT22;4465;50.904;4.696;2022-09-09T06:01:16;15.10;99.90
8858;DHT22;4465;50.904;4.696;2022-09-09T06:03:43;15.20;99.90
8858;DHT22;4465;50.904;4.696;2022-09-09T06:06:53;15.20;99.90
8858;DHT22;4465;50.904;4.696;2022-09-09T06:09:06;15.30;99.90
8858;DHT22;4465;50.904;4.696;2022-09-09T06:11:39;15.30;99.90
8858;DHT22;4465;50.904;4.696;2022-09-09T06:14:05;15.40;99.90
8858;DHT22;4465;50.904;4.696;2022-09-09T06:16:35;15.40;99.90
8858;DHT22;4465;50.904;4.696;2022-09-09T06:19:05;15.40;99.90
8858;DHT22;4465;50.904;4.696;2022-09-09T06:21:34;15.40;99.90
8858;DHT22;4465;50.904;4.696;2022-09-09T06:24:04;15.40;99.90
8858;DHT22;4465;50.904;4.696;2022-09-09T06:26:32;15.40;99.90
8858;DHT22;4465;50.904;4.696;2022-09-09T06:28:59;15.50;99.90
8858;DHT22;4465;50.904;4.696;2022-09-09T06:31:32;15.50;99.90
8858;DHT22;4465;50.904;4.696;2022-09-09T06:34:05;15.50;99.90
8858;DHT22;4465;50.904;4.696;2022-09-09T06:36:33;15.50;99.90
8858;DHT22;4465;50.904;4.696;2022-09-09T06:39:04;15.60;99.90
8858;DHT22;4465;50.904;4.696;2022-09-09T06:41:31;15.60;99.90
8858;DHT22;4465;50.904;4.696;2022-09-09T06:43:59;15.60;99.90
8858;DHT22;4465;50.904;4.696;2022-09-09T06:46:30;15.60;99.90
8858;DHT22;4465;50.904;4.696;2022-09-09T06:48:58;15.70;99.90
8858;DHT22;4465;50.904;4.696;2022-09-09T06:51:27;15.60;99.90
8858;DHT22;4465;50.904;4.696;2022-09-09T06:53:56;15.70;99.90
8858;DHT22;4465;50.904;4.696;2022-09-09T06:56:33;15.70;99.90
8858;DHT22;4465;50.904;4.696;2022-09-09T06:59:02;15.70;99.90
8858;DHT22;4465;50.904;4.696;2022-09-09T07:01:31;15.80;99.90
8858;DHT22;4465;50.904;4.696;2022-09-09T07:03:58;15.80;99.90
8858;DHT22;4465;50.904;4.696;2022-09-09T07:06:33;15.80;99.90
8858;DHT22;4465;50.904;4.696;2022-09-09T07:09:07;15.80;99.90
8858;DHT22;4465;50.904;4.696;2022-09-09T07:11:47;15.90;99.90
8858;DHT22;4465;50.904;4.696;2022-09-09T07:14:16;15.90;99.90
8858;DHT22;4465;50.904;4.696;2022-09-09T07:16:46;15.90;99.90
8858;DHT22;4465;50.904;4.696;2022-09-09T07:19:12;15.90;99.90
8858;DHT22;4465;50.904;4.696;2022-09-09T07:21:40;15.90;99.90
8858;DHT22;4465;50.904;4.696;2022-09-09T07:24:06;15.90;99.90
8858;DHT22;4465;50.904;4.696;2022-09-09T07:26:36;16.00;99.90
8858;DHT22;4465;50.904;4.696;2022-09-09T07:29:05;16.00;99.90
8858;DHT22;4465;50.904;4.696;2022-09-09T07:31:35;16.00;99.90
8858;DHT22;4465;50.904;4.696;2022-09-09T07:34:03;16.00;99.90
8858;DHT22;4465;50.904;4.696;2022-09-09T07:36:31;16.10;99.90
8858;DHT22;4465;50.904;4.696;2022-09-09T07:39:00;16.10;99.90
8858;DHT22;4465;50.904;4.696;2022-09-09T07:41:28;16.10;99.90
8858;DHT22;4465;50.904;4.696;2022-09-09T07:44:03;16.10;99.90
8858;DHT22;4465;50.904;4.696;2022-09-09T07:46:30;16.10;99.90
8858;DHT22;4465;50.904;4.696;2022-09-09T07:48:56;16.10;99.90
8858;DHT22;4465;50.904;4.696;2022-09-09T07:51:28;16.10;99.90
8858;DHT22;4465;50.904;4.696;2022-09-09T07:54:00;16.10;99.90
8858;DHT22;4465;50.904;4.696;2022-09-09T07:56:28;16.10;99.90
8858;DHT22;4465;50.904;4.696;2022-09-09T07:58:56;16.20;99.90
8858;DHT22;4465;50.904;4.696;2022-09-09T08:01:26;16.20;99.90
8858;DHT22;4465;50.904;4.696;2022-09-09T08:03:55;16.20;99.90
8858;DHT22;4465;50.904;4.696;2022-09-09T08:06:26;16.20;99.90
8858;DHT22;4465;50.904;4.696;2022-09-09T08:08:54;16.20;99.90
8858;DHT22;4465;50.904;4.696;2022-09-09T08:11:23;16.20;99.90
8858;DHT22;4465;50.904;4.696;2022-09-09T08:13:52;16.20;99.90
8858;DHT22;4465;50.904;4.696;2022-09-09T08:16:27;16.20;99.90
8858;DHT22;4465;50.904;4.696;2022-09-09T08:18:53;16.30;99.90
8858;DHT22;4465;50.904;4.696;2022-09-09T08:21:25;16.30;99.90
8858;DHT22;4465;50.904;4.696;2022-09-09T08:23:55;16.30;99.90
8858;DHT22;4465;50.904;4.696;2022-09-09T08:26:34;16.30;99.90
8858;DHT22;4465;50.904;4.696;2022-09-09T08:29:03;16.40;99.90
8858;DHT22;4465;50.904;4.696;2022-09-09T08:31:34;16.40;99.90
8858;DHT22;4465;50.904;4.696;2022-09-09T08:34:01;16.40;99.90
8858;DHT22;4465;50.904;4.696;2022-09-09T08:36:33;16.50;99.90
8858;DHT22;4465;50.904;4.696;2022-09-09T08:38:59;16.50;99.90
8858;DHT22;4465;50.904;4.696;2022-09-09T08:44:45;16.60;99.90
8858;DHT22;4465;50.904;4.696;2022-09-09T08:50:30;16.70;99.90
8858;DHT22;4465;50.904;4.696;2022-09-09T08:53:19;16.70;99.90
8858;DHT22;4465;50.904;4.696;2022-09-09T08:55:49;16.70;99.90
8858;DHT22;4465;50.904;4.696;2022-09-09T08:58:21;16.70;99.90
8858;DHT22;4465;50.904;4.696;2022-09-09T09:07:24;16.70;99.90
8858;DHT22;4465;50.904;4.696;2022-09-09T09:12:58;16.70;99.90
8858;DHT22;4465;50.904;4.696;2022-09-09T09:15:33;16.70;99.90
8858;DHT22;4465;50.904;4.696;2022-09-09T09:18:03;16.70;99.90
8858;DHT22;4465;50.904;4.696;2022-09-09T09:20:54;16.60;99.90
8858;DHT22;4465;50.904;4.696;2022-09-09T09:23:33;16.60;99.90
8858;DHT22;4465;50.904;4.696;2022-09-09T09:26:06;16.60;99.90
8858;DHT22;4465;50.904;4.696;2022-09-09T09:28:33;16.60;99.90
8858;DHT22;4465;50.904;4.696;2022-09-09T09:31:03;16.60;99.90
8858;DHT22;4465;50.904;4.696;2022-09-09T09:36:07;16.60;99.90
8858;DHT22;4465;50.904;4.696;2022-09-09T09:38:35;16.60;99.90
8858;DHT22;4465;50.904;4.696;2022-09-09T09:41:02;16.60;99.90
8858;DHT22;4465;50.904;4.696;2022-09-09T09:43:33;16.60;99.90
8858;DHT22;4465;50.904;4.696;2022-09-09T09:46:00;16.60;99.90
8858;DHT22;4465;50.904;4.696;2022-09-09T09:48:29;16.60;99.90
8858;DHT22;4465;50.904;4.696;2022-09-09T09:50:57;16.70;99.90
8858;DHT22;4465;50.904;4.696;2022-09-09T09:53:26;16.70;99.90
8858;DHT22;4465;50.904;4.696;2022-09-09T09:56:05;16.70;99.90
8858;DHT22;4465;50.904;4.696;2022-09-09T10:01:28;16.70;99.90
8858;DHT22;4465;50.904;4.696;2022-09-09T10:04:01;16.70;99.90
8858;DHT22;4465;50.904;4.696;2022-09-09T10:06:36;16.60;99.90
8858;DHT22;4465;50.904;4.696;2022-09-09T10:09:30;16.70;99.90
8858;DHT22;4465;50.904;4.696;2022-09-09T10:14:39;16.70;99.90
8858;DHT22;4465;50.904;4.696;2022-09-09T10:17:22;16.70;99.90
8858;DHT22;4465;50.904;4.696;2022-09-09T10:20:49;16.70;99.90
8858;DHT22;4465;50.904;4.696;2022-09-09T10:23:17;16.70;99.90
8858;DHT22;4465;50.904;4.696;2022-09-09T10:31:58;16.60;99.90
8858;DHT22;4465;50.904;4.696;2022-09-09T10:34:49;16.70;99.90
8858;DHT22;4465;50.904;4.696;2022-09-09T10:40:17;16.70;99.90
8858;DHT22;4465;50.904;4.696;2022-09-09T10:42:49;16.70;99.90
8858;DHT22;4465;50.904;4.696;2022-09-09T10:45:19;16.70;99.90
8858;DHT22;4465;50.904;4.696;2022-09-09T10:48:09;16.70;99.90
8858;DHT22;4465;50.904;4.696;2022-09-09T10:55:59;16.80;99.90
8858;DHT22;4465;50.904;4.696;2022-09-09T10:58:41;16.80;99.90
8858;DHT22;4465;50.904;4.696;2022-09-09T11:01:16;16.80;99.90
8858;DHT22;4465;50.904;4.696;2022-09-09T11:03:52;16.90;99.90
8858;DHT22;4465;50.904;4.696;2022-09-09T11:06:25;16.90;99.90
8858;DHT22;4465;50.904;4.696;2022-09-09T11:08:53;17.00;99.90
8858;DHT22;4465;50.904;4.696;2022-09-09T11:11:27;17.00;99.90
8858;DHT22;4465;50.904;4.696;2022-09-09T11:14:03;17.20;99.90
8858;DHT22;4465;50.904;4.696;2022-09-09T11:16:42;17.10;99.90
8858;DHT22;4465;50.904;4.696;2022-09-09T11:19:28;17.30;99.90
8858;DHT22;4465;50.904;4.696;2022-09-09T11:22:00;17.30;99.90
8858;DHT22;4465;50.904;4.696;2022-09-09T11:30:04;17.60;99.90
8858;DHT22;4465;50.904;4.696;2022-09-09T11:32:40;17.70;99.90
8858;DHT22;4465;50.904;4.696;2022-09-09T11:38:16;17.90;99.90
8858;DHT22;4465;50.904;4.696;2022-09-09T11:40:58;18.00;99.90
8858;DHT22;4465;50.904;4.696;2022-09-09T11:43:52;18.10;99.90
8858;DHT22;4465;50.904;4.696;2022-09-09T11:46:35;18.20;99.90
8858;DHT22;4465;50.904;4.696;2022-09-09T11:49:05;18.20;99.90
8858;DHT22;4465;50.904;4.696;2022-09-09T11:51:33;18.30;99.90
8858;DHT22;4465;50.904;4.696;2022-09-09T11:54:25;18.30;99.90
8858;DHT22;4465;50.904;4.696;2022-09-09T11:56:47;18.40;99.90
8858;DHT22;4465;50.904;4.696;2022-09-09T11:59:26;18.40;99.90
8858;DHT22;4465;50.904;4.696;2022-09-09T12:02:17;18.50;99.90
8858;DHT22;4465;50.904;4.696;2022-09-09T12:10:30;18.40;99.90
8858;DHT22;4465;50.904;4.696;2022-09-09T12:13:17;18.40;99.90
8858;DHT22;4465;50.904;4.696;2022-09-09T12:15:49;18.40;99.90
8858;DHT22;4465;50.904;4.696;2022-09-09T12:18:33;18.40;99.90
8858;DHT22;4465;50.904;4.696;2022-09-09T12:21:07;18.40;99.90
8858;DHT22;4465;50.904;4.696;2022-09-09T12:23:52;18.50;99.90
8858;DHT22;4465;50.904;4.696;2022-09-09T12:26:37;18.50;99.90
8858;DHT22;4465;50.904;4.696;2022-09-09T12:29:12;18.50;99.90
8858;DHT22;4465;50.904;4.696;2022-09-09T12:32:00;18.50;99.90
8858;DHT22;4465;50.904;4.696;2022-09-09T12:34:41;18.50;99.90
8858;DHT22;4465;50.904;4.696;2022-09-09T12:40:05;18.60;99.90
8858;DHT22;4465;50.904;4.696;2022-09-09T12:42:31;18.60;99.90
8858;DHT22;4465;50.904;4.696;2022-09-09T12:45:03;18.60;99.90
8858;DHT22;4465;50.904;4.696;2022-09-09T12:48:19;18.70;99.90
8858;DHT22;4465;50.904;4.696;2022-09-09T12:50:49;18.70;99.90
8858;DHT22;4465;50.904;4.696;2022-09-09T12:53:36;18.70;99.90
8858;DHT22;4465;50.904;4.696;2022-09-09T12:56:17;18.70;99.90
8858;DHT22;4465;50.904;4.696;2022-09-09T12:58:47;18.70;99.90
8858;DHT22;4465;50.904;4.696;2022-09-09T13:01:27;18.60;99.90
8858;DHT22;4465;50.904;4.696;2022-09-09T13:03:56;18.60;99.90
8858;DHT22;4465;50.904;4.696;2022-09-09T13:06:32;18.60;99.90
8858;DHT22;4465;50.904;4.696;2022-09-09T13:09:01;18.70;99.90
8858;DHT22;4465;50.904;4.696;2022-09-09T13:11:39;18.70;99.90
8858;DHT22;4465;50.904;4.696;2022-09-09T13:14:30;18.80;99.90
8858;DHT22;4465;50.904;4.696;2022-09-09T13:16:59;18.80;99.90
8858;DHT22;4465;50.904;4.696;2022-09-09T13:19:35;18.90;99.90
8858;DHT22;4465;50.904;4.696;2022-09-09T13:25:20;18.90;99.90
8858;DHT22;4465;50.904;4.696;2022-09-09T13:28:05;19.10;99.90
8858;DHT22;4465;50.904;4.696;2022-09-09T13:30:36;19.10;99.90
8858;DHT22;4465;50.904;4.696;2022-09-09T13:35:54;19.30;99.90
8858;DHT22;4465;50.904;4.696;2022-09-09T13:38:22;19.30;99.90
8858;DHT22;4465;50.904;4.696;2022-09-09T13:43:34;19.30;99.90
8858;DHT22;4465;50.904;4.696;2022-09-09T13:49:22;19.40;99.90
8858;DHT22;4465;50.904;4.696;2022-09-09T13:51:51;19.40;99.90
8858;DHT22;4465;50.904;4.696;2022-09-09T13:54:20;19.30;99.90
8858;DHT22;4465;50.904;4.696;2022-09-09T13:56:49;19.30;99.90
8858;DHT22;4465;50.904;4.696;2022-09-09T13:59:17;19.40;99.90
8858;DHT22;4465;50.904;4.696;2022-09-09T14:01:45;19.40;99.90
8858;DHT22;4465;50.904;4.696;2022-09-09T14:04:12;19.40;99.90
8858;DHT22;4465;50.904;4.696;2022-09-09T14:06:39;19.40;99.90
8858;DHT22;4465;50.904;4.696;2022-09-09T14:09:07;19.40;99.90
8858;DHT22;4465;50.904;4.696;2022-09-09T14:11:33;19.40;99.90
8858;DHT22;4465;50.904;4.696;2022-09-09T14:13:59;19.40;99.90
8858;DHT22;4465;50.904;4.696;2022-09-09T14:16:26;19.40;99.90
8858;DHT22;4465;50.904;4.696;2022-09-09T14:18:53;19.50;99.90
8858;DHT22;4465;50.904;4.696;2022-09-09T14:21:22;19.50;99.90
8858;DHT22;4465;50.904;4.696;2022-09-09T14:23:52;19.60;99.90
8858;DHT22;4465;50.904;4.696;2022-09-09T14:26:24;19.60;99.90
8858;DHT22;4465;50.904;4.696;2022-09-09T14:28:50;19.60;99.90
8858;DHT22;4465;50.904;4.696;2022-09-09T14:31:17;19.60;99.90
8858;DHT22;4465;50.904;4.696;2022-09-09T14:33:44;19.60;99.90
8858;DHT22;4465;50.904;4.696;2022-09-09T14:36:11;19.60;99.90
8858;DHT22;4465;50.904;4.696;2022-09-09T14:38:38;19.60;99.90
8858;DHT22;4465;50.904;4.696;2022-09-09T14:41:10;19.60;99.90
8858;DHT22;4465;50.904;4.696;2022-09-09T14:43:38;19.60;99.90
8858;DHT22;4465;50.904;4.696;2022-09-09T14:46:09;19.60;99.90
8858;DHT22;4465;50.904;4.696;2022-09-09T14:48:35;19.60;99.90
8858;DHT22;4465;50.904;4.696;2022-09-09T14:51:17;19.60;99.90
8858;DHT22;4465;50.904;4.696;2022-09-09T14:53:44;19.60;99.90
8858;DHT22;4465;50.904;4.696;2022-09-09T14:56:22;19.60;99.90
8858;DHT22;4465;50.904;4.696;2022-09-09T14:58:53;19.60;99.90
8858;DHT22;4465;50.904;4.696;2022-09-09T15:01:23;19.60;99.90
8858;DHT22;4465;50.904;4.696;2022-09-09T15:03:51;19.60;99.90
8858;DHT22;4465;50.904;4.696;2022-09-09T15:06:18;19.60;99.90
8858;DHT22;4465;50.904;4.696;2022-09-09T15:08:45;19.60;99.90
8858;DHT22;4465;50.904;4.696;2022-09-09T15:11:13;19.60;99.90
8858;DHT22;4465;50.904;4.696;2022-09-09T15:13:40;19.70;99.90
8858;DHT22;4465;50.904;4.696;2022-09-09T15:16:09;19.70;99.90
8858;DHT22;4465;50.904;4.696;2022-09-09T15:18:36;19.70;99.90
8858;DHT22;4465;50.904;4.696;2022-09-09T15:21:06;19.70;99.90
8858;DHT22;4465;50.904;4.696;2022-09-09T15:23:33;19.70;99.90
8858;DHT22;4465;50.904;4.696;2022-09-09T15:26:00;19.70;99.90
8858;DHT22;4465;50.904;4.696;2022-09-09T15:28:27;19.70;99.90
8858;DHT22;4465;50.904;4.696;2022-09-09T15:30:55;19.60;99.90
8858;DHT22;4465;50.904;4.696;2022-09-09T15:33:24;19.60;99.90
8858;DHT22;4465;50.904;4.696;2022-09-09T15:35:51;19.60;99.90
8858;DHT22;4465;50.904;4.696;2022-09-09T15:38:17;19.60;99.90
8858;DHT22;4465;50.904;4.696;2022-09-09T15:40:44;19.60;99.90
8858;DHT22;4465;50.904;4.696;2022-09-09T15:43:12;19.50;99.90
8858;DHT22;4465;50.904;4.696;2022-09-09T15:45:40;19.50;99.90
8858;DHT22;4465;50.904;4.696;2022-09-09T15:48:09;19.50;99.90
8858;DHT22;4465;50.904;4.696;2022-09-09T15:50:35;19.60;99.90
8858;DHT22;4465;50.904;4.696;2022-09-09T15:53:02;19.60;99.90
8858;DHT22;4465;50.904;4.696;2022-09-09T15:55:28;19.70;99.90
8858;DHT22;4465;50.904;4.696;2022-09-09T15:57:55;19.70;99.90
8858;DHT22;4465;50.904;4.696;2022-09-09T16:00:21;19.70;99.90
8858;DHT22;4465;50.904;4.696;2022-09-09T16:02:48;19.60;99.90
8858;DHT22;4465;50.904;4.696;2022-09-09T16:05:15;19.60;99.90
8858;DHT22;4465;50.904;4.696;2022-09-09T16:07:43;19.60;99.90
8858;DHT22;4465;50.904;4.696;2022-09-09T16:10:10;19.60;99.90
8858;DHT22;4465;50.904;4.696;2022-09-09T16:12:37;19.60;99.90
8858;DHT22;4465;50.904;4.696;2022-09-09T16:15:04;19.60;99.90
8858;DHT22;4465;50.904;4.696;2022-09-09T16:17:30;19.70;99.90
8858;DHT22;4465;50.904;4.696;2022-09-09T16:20:03;19.70;99.90
8858;DHT22;4465;50.904;4.696;2022-09-09T16:22:30;19.70;99.90
8858;DHT22;4465;50.904;4.696;2022-09-09T16:24:56;19.70;99.90
8858;DHT22;4465;50.904;4.696;2022-09-09T16:27:24;19.70;99.90
8858;DHT22;4465;50.904;4.696;2022-09-09T16:29:50;19.70;99.90
8858;DHT22;4465;50.904;4.696;2022-09-09T16:32:17;19.60;99.90
8858;DHT22;4465;50.904;4.696;2022-09-09T16:34:42;19.60;99.90
8858;DHT22;4465;50.904;4.696;2022-09-09T16:37:09;19.60;99.90
8858;DHT22;4465;50.904;4.696;2022-09-09T16:39:36;19.50;99.90
8858;DHT22;4465;50.904;4.696;2022-09-09T16:42:07;19.50;99.90
8858;DHT22;4465;50.904;4.696;2022-09-09T16:44:35;19.40;99.90
8858;DHT22;4465;50.904;4.696;2022-09-09T16:47:02;19.40;99.90
8858;DHT22;4465;50.904;4.696;2022-09-09T16:49:28;19.30;99.90
8858;DHT22;4465;50.904;4.696;2022-09-09T16:51:57;19.30;99.90
8858;DHT22;4465;50.904;4.696;2022-09-09T16:54:23;19.20;99.90
8858;DHT22;4465;50.904;4.696;2022-09-09T16:56:54;19.20;99.90
8858;DHT22;4465;50.904;4.696;2022-09-09T16:59:21;19.10;99.90
8858;DHT22;4465;50.904;4.696;2022-09-09T17:01:51;19.10;99.90
8858;DHT22;4465;50.904;4.696;2022-09-09T17:04:20;18.90;99.90
8858;DHT22;4465;50.904;4.696;2022-09-09T17:06:48;18.80;99.90
8858;DHT22;4465;50.904;4.696;2022-09-09T17:09:21;18.70;99.90
8858;DHT22;4465;50.904;4.696;2022-09-09T17:11:50;18.70;99.90
8858;DHT22;4465;50.904;4.696;2022-09-09T17:14:21;18.50;99.90
8858;DHT22;4465;50.904;4.696;2022-09-09T17:16:48;18.40;99.90
8858;DHT22;4465;50.904;4.696;2022-09-09T17:19:14;18.30;99.90
8858;DHT22;4465;50.904;4.696;2022-09-09T17:21:41;18.20;99.90
8858;DHT22;4465;50.904;4.696;2022-09-09T17:24:07;18.20;99.90
8858;DHT22;4465;50.904;4.696;2022-09-09T17:26:34;18.10;99.90
8858;DHT22;4465;50.904;4.696;2022-09-09T17:29:02;18.10;99.90
8858;DHT22;4465;50.904;4.696;2022-09-09T17:31:28;18.10;99.90
8858;DHT22;4465;50.904;4.696;2022-09-09T17:33:56;18.00;99.90
8858;DHT22;4465;50.904;4.696;2022-09-09T17:36:27;18.00;99.90
8858;DHT22;4465;50.904;4.696;2022-09-09T17:38:54;17.90;99.90
8858;DHT22;4465;50.904;4.696;2022-09-09T17:41:22;17.90;99.90
8858;DHT22;4465;50.904;4.696;2022-09-09T17:43:51;17.90;99.90
8858;DHT22;4465;50.904;4.696;2022-09-09T17:46:22;17.80;99.90
8858;DHT22;4465;50.904;4.696;2022-09-09T17:48:56;17.80;99.90
8858;DHT22;4465;50.904;4.696;2022-09-09T17:51:25;17.80;99.90
8858;DHT22;4465;50.904;4.696;2022-09-09T17:53:57;17.70;99.90
8858;DHT22;4465;50.904;4.696;2022-09-09T17:56:26;17.70;99.90
8858;DHT22;4465;50.904;4.696;2022-09-09T17:58:56;17.70;99.90
8858;DHT22;4465;50.904;4.696;2022-09-09T18:01:24;17.60;99.90
8858;DHT22;4465;50.904;4.696;2022-09-09T18:03:55;17.60;99.90
8858;DHT22;4465;50.904;4.696;2022-09-09T18:06:29;17.60;99.90
8858;DHT22;4465;50.904;4.696;2022-09-09T18:09:02;17.50;99.90
8858;DHT22;4465;50.904;4.696;2022-09-09T18:11:31;17.50;99.90
8858;DHT22;4465;50.904;4.696;2022-09-09T18:14:00;17.40;99.90
8858;DHT22;4465;50.904;4.696;2022-09-09T18:16:31;17.40;99.90